createdAt,value
2023-03-04T00:00:13.146Z,30.20
2023-03-04T00:02:40.166Z,30.05
2023-03-04T00:05:07.716Z,30.35
2023-03-04T00:07:35.523Z,31.13
2023-03-04T00:10:02.777Z,31.45
2023-03-04T00:12:29.976Z,31.60
2023-03-04T00:14:57.259Z,31.13
2023-03-04T00:17:24.465Z,29.88
2023-03-04T00:19:51.400Z,30.52
2023-03-04T00:22:18.569Z,31.27
2023-03-04T00:24:46.639Z,31.10
2023-03-04T00:27:13.848Z,31.20
2023-03-04T00:29:41.192Z,31.20
2023-03-04T00:32:08.460Z,31.90
2023-03-04T00:34:35.500Z,29.65
2023-03-04T00:37:03.692Z,29.20
2023-03-04T00:39:31.297Z,29.35
2023-03-04T00:41:59.354Z,30.48
2023-03-04T00:44:26.804Z,30.45
2023-03-04T00:46:53.831Z,29.90
2023-03-04T00:49:20.845Z,29.75
2023-03-04T00:51:47.891Z,30.55
2023-03-04T00:54:14.865Z,30.55
2023-03-04T00:56:41.873Z,29.77
2023-03-04T00:59:08.853Z,28.95
2023-03-04T01:01:35.911Z,30.98
2023-03-04T01:04:03.445Z,29.60
2023-03-04T01:06:30.584Z,32.75
2023-03-04T01:08:57.547Z,30.90
2023-03-04T01:11:24.849Z,31.70
2023-03-04T01:13:52.799Z,32.15
2023-03-04T01:16:20.625Z,30.73
2023-03-04T01:18:47.836Z,29.23
2023-03-04T01:21:15.286Z,30.30
2023-03-04T01:23:42.276Z,31.45
2023-03-04T01:26:09.200Z,29.92
2023-03-04T01:28:36.151Z,30.30
2023-03-04T01:31:04.026Z,30.65
2023-03-04T01:33:31.650Z,31.02
2023-03-04T01:35:58.779Z,30.42
2023-03-04T01:38:25.904Z,29.67
2023-03-04T01:40:53.911Z,30.60
2023-03-04T01:43:27.779Z,29.50
2023-03-04T01:45:56.835Z,31.63
2023-03-04T01:48:37.164Z,29.27
2023-03-04T01:51:06.434Z,30.10
2023-03-04T01:53:34.042Z,30.55
2023-03-04T01:56:22.571Z,30.35
2023-03-04T01:59:16.012Z,29.50
2023-03-04T02:02:01.975Z,29.92
2023-03-04T02:04:34.282Z,30.63
2023-03-04T02:07:02.864Z,31.10
2023-03-04T02:09:31.643Z,30.50
2023-03-04T02:11:58.999Z,31.77
2023-03-04T02:14:26.364Z,30.08
2023-03-04T02:16:53.500Z,30.23
2023-03-04T02:19:49.961Z,31.02
2023-03-04T02:22:17.430Z,31.60
2023-03-04T02:25:04.462Z,31.95
2023-03-04T02:27:31.517Z,31.35
2023-03-04T02:29:58.572Z,30.88
2023-03-04T02:32:25.838Z,32.03
2023-03-04T02:34:52.756Z,31.85
2023-03-04T02:37:21.625Z,31.80
2023-03-04T02:39:50.134Z,30.95
2023-03-04T02:42:18.575Z,31.63
2023-03-04T02:44:48.366Z,31.75
2023-03-04T02:47:20.179Z,31.33
2023-03-04T02:49:47.610Z,31.27
2023-03-04T02:52:19.923Z,31.55
2023-03-04T02:54:47.088Z,32.08
2023-03-04T02:57:15.041Z,31.17
2023-03-04T02:59:43.112Z,30.77
2023-03-04T03:02:10.310Z,32.33
2023-03-04T03:04:39.354Z,30.00
2023-03-04T03:07:06.671Z,30.27
2023-03-04T03:09:33.856Z,30.98
2023-03-04T03:12:01.200Z,31.55
2023-03-04T03:14:28.512Z,31.70
2023-03-04T03:16:55.681Z,31.13
2023-03-04T03:19:22.666Z,29.95
2023-03-04T03:21:50.364Z,32.28
2023-03-04T03:24:17.557Z,30.90
2023-03-04T03:26:44.696Z,31.00
2023-03-04T03:29:11.870Z,32.45
2023-03-04T03:31:38.913Z,31.75
2023-03-04T03:34:05.947Z,30.10
2023-03-04T03:36:33.061Z,30.48
2023-03-04T03:39:00.065Z,32.38
2023-03-04T03:41:27.155Z,31.38
2023-03-04T03:43:54.427Z,31.10
2023-03-04T03:46:21.349Z,31.80
2023-03-04T03:48:48.378Z,32.67
2023-03-04T03:51:15.541Z,33.33
2023-03-04T03:53:42.448Z,32.35
2023-03-04T03:56:09.590Z,32.08
2023-03-04T03:58:36.499Z,33.97
2023-03-04T04:01:03.414Z,33.47
2023-03-04T04:03:31.182Z,32.50
2023-03-04T04:05:58.275Z,31.75
2023-03-04T04:08:25.124Z,31.90
2023-03-04T04:10:52.163Z,32.65
2023-03-04T04:13:19.081Z,32.05
2023-03-04T04:15:46.392Z,32.05
2023-03-04T04:18:13.437Z,31.73
2023-03-04T04:20:40.428Z,31.95
2023-03-04T04:23:07.557Z,31.15
2023-03-04T04:25:34.822Z,32.47
2023-03-04T04:28:01.985Z,31.67
2023-03-04T04:30:29.392Z,31.95
2023-03-04T04:32:56.548Z,32.20
2023-03-04T04:35:23.987Z,33.05
2023-03-04T04:37:51.224Z,32.35
2023-03-04T04:40:18.646Z,30.85
2023-03-04T04:42:45.877Z,31.75
2023-03-04T04:45:13.023Z,29.60
2023-03-04T04:47:40.036Z,30.42
2023-03-04T04:50:07.995Z,30.95
2023-03-04T04:52:34.990Z,31.55
2023-03-04T04:55:02.516Z,29.73
2023-03-04T04:57:29.589Z,31.75
2023-03-04T04:59:56.832Z,29.85
2023-03-04T05:02:24.060Z,31.13
2023-03-04T05:04:51.100Z,30.67
2023-03-04T05:07:18.226Z,31.77
2023-03-04T05:09:46.005Z,31.67
2023-03-04T05:12:13.080Z,31.73
2023-03-04T05:14:40.018Z,31.13
2023-03-04T05:17:07.177Z,30.73
2023-03-04T05:19:34.198Z,30.05
2023-03-04T05:22:01.421Z,30.90
2023-03-04T05:24:28.508Z,31.33
2023-03-04T05:26:55.506Z,29.90
2023-03-04T05:29:22.393Z,30.67
2023-03-04T05:31:49.407Z,32.70
2023-03-04T05:34:16.414Z,29.10
2023-03-04T05:36:43.405Z,29.95
2023-03-04T05:39:10.334Z,31.02
2023-03-04T05:41:37.333Z,29.55
2023-03-04T05:44:04.447Z,32.05
2023-03-04T05:46:33.535Z,30.42
2023-03-04T05:49:00.737Z,30.92
2023-03-04T05:51:27.814Z,31.40
2023-03-04T05:53:54.748Z,30.92
2023-03-04T05:56:21.901Z,29.90
2023-03-04T05:58:48.980Z,30.42
2023-03-04T06:01:16.309Z,28.92
2023-03-04T06:03:43.626Z,31.95
2023-03-04T06:06:11.047Z,31.63
2023-03-04T06:08:38.217Z,33.45
2023-03-04T06:11:05.770Z,31.25
2023-03-04T06:13:33.322Z,31.92
2023-03-04T06:16:00.974Z,30.58
2023-03-04T06:18:29.467Z,31.20
2023-03-04T06:21:01.442Z,31.00
2023-03-04T06:23:29.731Z,30.83
2023-03-04T06:25:58.872Z,32.92
2023-03-04T06:28:26.284Z,32.80
2023-03-04T06:30:54.640Z,31.85
2023-03-04T06:33:21.845Z,33.22
2023-03-04T06:35:49.159Z,32.00
2023-03-04T06:38:16.439Z,32.15
2023-03-04T06:40:45.807Z,30.88
2023-03-04T06:43:12.944Z,31.45
2023-03-04T06:45:40.355Z,31.92
2023-03-04T06:48:07.441Z,31.17
2023-03-04T06:50:34.813Z,32.65
2023-03-04T06:53:01.864Z,31.23
2023-03-04T06:55:28.825Z,30.67
2023-03-04T06:57:55.766Z,32.30
2023-03-04T07:00:24.076Z,30.83
2023-03-04T07:02:52.889Z,32.50
2023-03-04T07:05:21.247Z,31.08
2023-03-04T07:07:49.807Z,32.17
2023-03-04T07:10:21.808Z,32.25
2023-03-04T07:12:49.013Z,33.53
2023-03-04T07:15:18.981Z,32.30
2023-03-04T07:17:45.981Z,32.83
2023-03-04T07:20:13.113Z,31.95
2023-03-04T07:22:40.049Z,32.30
2023-03-04T07:25:07.448Z,32.78
2023-03-04T07:27:34.623Z,31.27
2023-03-04T07:30:01.715Z,32.15
2023-03-04T07:32:28.892Z,31.50
2023-03-04T07:34:56.068Z,33.00
2023-03-04T07:37:23.173Z,33.72
2023-03-04T07:39:50.256Z,32.22
2023-03-04T07:42:17.616Z,31.15
2023-03-04T07:44:44.913Z,32.42
2023-03-04T07:47:11.891Z,31.17
2023-03-04T07:49:38.803Z,33.10
2023-03-04T07:52:06.206Z,32.85
2023-03-04T07:54:33.507Z,32.15
2023-03-04T07:57:00.622Z,33.53
2023-03-04T07:59:27.859Z,31.48
2023-03-04T08:01:54.964Z,32.88
2023-03-04T08:04:22.236Z,33.65
2023-03-04T08:06:49.240Z,33.65
2023-03-04T08:09:16.397Z,32.90
2023-03-04T08:11:43.566Z,32.88
2023-03-04T08:14:12.599Z,32.80
2023-03-04T08:16:39.527Z,33.58
2023-03-04T08:19:08.029Z,31.38
2023-03-04T08:21:35.475Z,32.65
2023-03-04T08:24:08.854Z,30.83
2023-03-04T08:26:43.867Z,30.40
2023-03-04T08:29:16.793Z,29.35
2023-03-04T08:31:48.595Z,29.00
2023-03-04T08:34:16.369Z,27.48
2023-03-04T08:36:43.274Z,25.70
2023-03-04T08:39:13.533Z,26.27
2023-03-04T08:41:40.874Z,26.35
2023-03-04T08:44:10.294Z,26.17
2023-03-04T08:46:38.757Z,23.90
2023-03-04T08:49:06.399Z,24.50
2023-03-04T08:51:35.706Z,23.90
2023-03-04T08:54:05.536Z,24.25
2023-03-04T08:56:32.492Z,24.80
2023-03-04T08:58:59.796Z,24.20
2023-03-04T09:01:27.374Z,25.38
2023-03-04T09:03:55.360Z,24.80
2023-03-04T09:06:22.343Z,26.30
2023-03-04T09:08:49.296Z,24.95
2023-03-04T09:11:16.630Z,22.83
2023-03-04T09:13:43.701Z,23.80
2023-03-04T09:16:13.454Z,23.50
2023-03-04T09:18:42.138Z,27.05
2023-03-04T09:21:10.153Z,22.73
2023-03-04T09:23:38.216Z,20.63
2023-03-04T09:26:23.959Z,21.75
2023-03-04T09:28:54.824Z,22.40
2023-03-04T09:31:21.967Z,21.25
2023-03-04T09:33:49.415Z,19.85
2023-03-04T09:36:16.738Z,21.55
2023-03-04T09:38:43.861Z,20.92
2023-03-04T09:41:34.331Z,21.17
2023-03-04T09:44:06.851Z,19.45
2023-03-04T09:46:37.701Z,18.80
2023-03-04T09:49:07.110Z,18.63
2023-03-04T09:51:37.215Z,18.30
2023-03-04T09:54:23.316Z,18.13
2023-03-04T09:56:51.605Z,17.98
2023-03-04T09:59:32.418Z,18.58
2023-03-04T10:02:03.352Z,16.83
2023-03-04T10:04:42.700Z,18.58
2023-03-04T10:07:18.816Z,15.25
2023-03-04T10:10:07.142Z,15.88
2023-03-04T10:12:40.199Z,14.75
2023-03-04T10:15:31.044Z,15.52
2023-03-04T10:18:07.256Z,16.15
2023-03-04T10:21:05.903Z,15.43
2023-03-04T10:23:35.223Z,15.25
2023-03-04T10:26:16.054Z,15.18
2023-03-04T10:28:43.589Z,15.75
2023-03-04T10:31:30.237Z,15.75
2023-03-04T10:33:57.308Z,15.85
2023-03-04T10:36:29.961Z,14.88
2023-03-04T10:39:05.368Z,15.65
2023-03-04T10:41:33.119Z,15.80
2023-03-04T10:44:09.542Z,16.10
2023-03-04T10:46:42.277Z,15.75
2023-03-04T10:49:15.059Z,15.32
2023-03-04T10:54:29.965Z,16.17
2023-03-04T10:59:53.701Z,16.67
2023-03-04T11:02:23.188Z,17.27
2023-03-04T11:05:05.266Z,18.13
2023-03-04T11:07:52.279Z,16.50
2023-03-04T11:10:39.076Z,17.27
2023-03-04T11:13:12.156Z,17.85
2023-03-04T11:16:23.230Z,17.52
2023-03-04T11:18:57.038Z,18.17
2023-03-04T11:21:27.042Z,17.38
2023-03-04T11:24:03.662Z,16.88
2023-03-04T11:26:51.423Z,19.40
2023-03-04T11:29:26.451Z,17.85
2023-03-04T11:32:01.097Z,17.52
2023-03-04T11:34:49.787Z,17.40
2023-03-04T11:37:45.898Z,17.30
2023-03-04T11:40:16.917Z,16.65
2023-03-04T11:42:51.660Z,17.63
2023-03-04T11:45:38.645Z,17.35
2023-03-04T11:48:17.302Z,17.02
2023-03-04T11:51:02.407Z,17.40
2023-03-04T11:56:27.308Z,16.77
2023-03-04T11:59:20.292Z,17.20
2023-03-04T12:01:58.601Z,17.10
2023-03-04T12:04:34.637Z,16.35
2023-03-04T12:07:35.476Z,17.50
2023-03-04T12:10:23.430Z,17.52
2023-03-04T12:13:01.952Z,18.55
2023-03-04T12:15:47.886Z,17.52
2023-03-04T12:18:44.084Z,18.20
2023-03-04T12:21:31.477Z,17.70
2023-03-04T12:23:58.468Z,17.83
2023-03-04T12:26:38.441Z,17.08
2023-03-04T12:29:47.477Z,18.48
2023-03-04T12:32:20.599Z,17.63
2023-03-04T12:35:14.004Z,17.80
2023-03-04T12:37:59.100Z,18.00
2023-03-04T12:40:54.927Z,20.13
2023-03-04T12:43:41.491Z,19.40
2023-03-04T12:46:30.342Z,18.90
2023-03-04T12:49:21.596Z,19.15
2023-03-04T12:52:00.612Z,20.20
2023-03-04T12:54:41.112Z,18.95
2023-03-04T12:57:16.837Z,19.65
2023-03-04T13:00:00.095Z,19.83
2023-03-04T13:02:58.935Z,20.15
2023-03-04T13:05:38.263Z,18.90
2023-03-04T13:08:27.109Z,19.30
2023-03-04T13:11:00.462Z,19.08
2023-03-04T13:13:42.365Z,19.20
2023-03-04T13:16:18.241Z,17.77
2023-03-04T13:18:45.349Z,18.45
2023-03-04T13:21:12.383Z,18.50
2023-03-04T13:23:39.806Z,20.08
2023-03-04T13:26:21.706Z,20.25
2023-03-04T13:28:54.590Z,19.13
2023-03-04T13:31:26.442Z,20.15
2023-03-04T13:33:56.675Z,18.98
2023-03-04T13:36:54.989Z,19.63
2023-03-04T13:39:27.965Z,18.50
2023-03-04T13:41:57.119Z,19.90
2023-03-04T13:44:35.054Z,18.80
2023-03-04T13:47:18.767Z,19.40
2023-03-04T13:49:45.882Z,19.10
2023-03-04T13:52:39.532Z,19.45
2023-03-04T13:55:36.099Z,20.25
2023-03-04T13:58:27.034Z,20.42
2023-03-04T14:00:55.580Z,21.25
2023-03-04T14:03:26.666Z,26.17
2023-03-04T14:06:30.934Z,24.92
2023-03-04T14:08:58.533Z,23.38
2023-03-04T14:11:28.241Z,22.48
2023-03-04T14:13:57.490Z,23.27
2023-03-04T14:16:28.024Z,25.75
2023-03-04T14:19:09.309Z,23.65
2023-03-04T14:21:37.064Z,25.30
2023-03-04T14:24:12.475Z,26.42
2023-03-04T14:26:39.569Z,24.30
2023-03-04T14:29:22.896Z,24.90
2023-03-04T14:31:50.365Z,29.15
2023-03-04T14:34:24.516Z,24.80
2023-03-04T14:36:51.549Z,35.53
2023-03-04T14:39:19.995Z,22.48
2023-03-04T14:41:49.227Z,25.17
2023-03-04T14:44:35.968Z,25.13
2023-03-04T14:47:23.377Z,23.23
2023-03-04T14:49:50.825Z,22.92
2023-03-04T14:52:35.203Z,23.80
2023-03-04T14:55:19.955Z,23.30
2023-03-04T14:57:51.788Z,38.38
2023-03-04T15:00:29.962Z,24.17
2023-03-04T15:02:59.997Z,24.45
2023-03-04T15:05:33.128Z,23.73
2023-03-04T15:08:03.023Z,24.55
2023-03-04T15:10:35.638Z,22.50
2023-03-04T15:13:07.197Z,23.08
2023-03-04T15:15:44.207Z,24.08
2023-03-04T15:18:30.027Z,23.90
2023-03-04T15:21:02.855Z,26.17
2023-03-04T15:23:32.140Z,25.35
2023-03-04T15:26:02.770Z,26.33
2023-03-04T15:28:36.448Z,25.33
2023-03-04T15:31:07.072Z,25.30
2023-03-04T15:33:34.239Z,25.10
2023-03-04T15:36:02.682Z,25.17
2023-03-04T15:38:30.018Z,26.17
2023-03-04T15:41:00.588Z,24.73
2023-03-04T15:43:27.768Z,24.70
2023-03-04T15:45:54.993Z,24.70
2023-03-04T15:48:22.256Z,23.77
2023-03-04T15:50:55.794Z,24.10
2023-03-04T15:53:44.787Z,24.45
2023-03-04T15:56:21.926Z,24.00
2023-03-04T15:58:57.790Z,22.52
2023-03-04T16:01:25.310Z,22.63
2023-03-04T16:03:53.837Z,23.23
2023-03-04T16:06:23.762Z,21.60
2023-03-04T16:08:52.112Z,22.48
2023-03-04T16:11:28.343Z,21.73
2023-03-04T16:13:55.435Z,22.35
2023-03-04T16:16:22.521Z,22.90
2023-03-04T16:18:49.586Z,22.10
2023-03-04T16:21:23.410Z,20.27
2023-03-04T16:23:52.431Z,21.33
2023-03-04T16:26:21.752Z,21.20
2023-03-04T16:28:49.281Z,22.50
2023-03-04T16:31:18.028Z,20.05
2023-03-04T16:33:45.239Z,21.65
2023-03-04T16:36:12.452Z,22.83
2023-03-04T16:38:39.558Z,21.40
2023-03-04T16:41:13.161Z,21.25
2023-03-04T16:43:41.410Z,21.40
2023-03-04T16:46:10.733Z,21.15
2023-03-04T16:48:37.943Z,22.63
2023-03-04T16:51:21.656Z,23.13
2023-03-04T16:53:54.849Z,20.48
2023-03-04T16:56:22.316Z,21.50
2023-03-04T16:58:49.997Z,22.05
2023-03-04T17:01:20.297Z,22.95
2023-03-04T17:03:47.893Z,20.92
2023-03-04T17:06:16.072Z,22.50
2023-03-04T17:08:43.403Z,21.92
2023-03-04T17:11:19.974Z,21.48
2023-03-04T17:13:48.059Z,20.75
2023-03-04T17:16:15.721Z,20.75
2023-03-04T17:18:45.676Z,20.23
2023-03-04T17:21:15.342Z,22.20
2023-03-04T17:23:42.411Z,20.65
2023-03-04T17:26:10.649Z,23.08
2023-03-04T17:28:38.764Z,23.33
2023-03-04T17:31:10.908Z,20.65
2023-03-04T17:33:39.176Z,20.85
2023-03-04T17:36:08.866Z,20.88
2023-03-04T17:38:37.034Z,19.75
2023-03-04T17:41:05.365Z,19.02
2023-03-04T17:43:32.576Z,19.80
2023-03-04T17:46:08.581Z,19.58
2023-03-04T17:48:36.032Z,20.17
2023-03-04T17:51:03.432Z,18.58
2023-03-04T17:53:30.614Z,18.08
2023-03-04T17:56:00.266Z,18.13
2023-03-04T17:58:30.305Z,18.15
2023-03-04T18:01:04.960Z,18.55
2023-03-04T18:03:32.151Z,19.63
2023-03-04T18:05:59.556Z,18.35
2023-03-04T18:08:26.560Z,18.50
2023-03-04T18:10:53.639Z,18.50
2023-03-04T18:13:20.919Z,19.40
2023-03-04T18:15:48.067Z,18.33
2023-03-04T18:18:15.514Z,18.30
2023-03-04T18:20:42.468Z,17.65
2023-03-04T18:23:09.423Z,18.33
2023-03-04T18:25:36.471Z,18.60
2023-03-04T18:28:04.340Z,18.73
2023-03-04T18:30:31.623Z,17.17
2023-03-04T18:33:02.670Z,19.52
2023-03-04T18:35:29.758Z,18.42
2023-03-04T18:37:57.112Z,19.70
2023-03-04T18:40:24.064Z,21.40
2023-03-04T18:42:51.510Z,20.55
2023-03-04T18:45:19.023Z,18.55
2023-03-04T18:47:50.375Z,23.08
2023-03-04T18:50:17.713Z,31.23
2023-03-04T18:52:45.107Z,43.60
2023-03-04T18:55:13.019Z,23.25
2023-03-04T18:57:46.957Z,17.83
2023-03-04T19:00:22.516Z,19.23
2023-03-04T19:03:00.187Z,17.25
2023-03-04T19:05:31.218Z,17.58
2023-03-04T19:07:58.450Z,18.88
2023-03-04T19:10:25.658Z,16.98
2023-03-04T19:12:52.711Z,18.08
2023-03-04T19:15:20.245Z,19.80
2023-03-04T19:17:47.405Z,19.88
2023-03-04T19:20:15.873Z,18.45
2023-03-04T19:22:43.281Z,19.02
2023-03-04T19:25:11.878Z,19.90
2023-03-04T19:27:39.025Z,19.95
2023-03-04T19:30:07.252Z,21.05
2023-03-04T19:32:34.345Z,19.70
2023-03-04T19:35:01.500Z,21.20
2023-03-04T19:37:28.806Z,23.77
2023-03-04T19:39:56.105Z,19.67
2023-03-04T19:42:24.162Z,19.67
2023-03-04T19:44:51.608Z,20.95
2023-03-04T19:47:18.560Z,20.58
2023-03-04T19:49:45.800Z,20.67
2023-03-04T19:52:12.824Z,22.88
2023-03-04T19:54:40.090Z,23.27
2023-03-04T19:57:07.126Z,22.42
2023-03-04T19:59:35.203Z,22.88
2023-03-04T20:02:03.017Z,23.77
2023-03-04T20:04:30.556Z,23.77
2023-03-04T20:06:57.739Z,25.92
2023-03-04T20:09:25.258Z,23.52
2023-03-04T20:11:58.755Z,21.88
2023-03-04T20:14:31.058Z,21.20
2023-03-04T20:17:02.690Z,21.55
2023-03-04T20:19:31.290Z,23.55
2023-03-04T20:21:58.822Z,21.80
2023-03-04T20:24:26.971Z,23.50
2023-03-04T20:26:54.306Z,21.75
2023-03-04T20:29:21.376Z,23.10
2023-03-04T20:31:49.068Z,20.98
2023-03-04T20:34:16.205Z,23.90
2023-03-04T20:36:43.478Z,22.80
2023-03-04T20:39:25.795Z,23.67
2023-03-04T20:41:57.047Z,21.95
2023-03-04T20:44:24.796Z,22.90
2023-03-04T20:46:52.614Z,22.40
2023-03-04T20:49:23.803Z,23.38
2023-03-04T20:51:52.384Z,22.60
2023-03-04T20:54:19.570Z,20.85
2023-03-04T20:56:47.374Z,22.42
2023-03-04T20:59:14.408Z,23.40
2023-03-04T21:01:43.286Z,21.45
2023-03-04T21:04:11.148Z,21.90
2023-03-04T21:06:39.491Z,20.60
2023-03-04T21:09:14.208Z,21.77
2023-03-04T21:11:42.215Z,20.65
2023-03-04T21:14:24.315Z,22.58
2023-03-04T21:16:56.222Z,20.45
2023-03-04T21:19:27.384Z,22.23
2023-03-04T21:21:56.449Z,22.40
2023-03-04T21:24:26.583Z,20.73
2023-03-04T21:26:53.666Z,21.73
2023-03-04T21:29:23.982Z,24.70
2023-03-04T21:32:23.308Z,23.98
2023-03-04T21:34:52.679Z,22.50
2023-03-04T21:37:21.781Z,23.45
2023-03-04T21:39:48.905Z,22.48
2023-03-04T21:42:16.174Z,23.92
2023-03-04T21:44:51.599Z,24.27
2023-03-04T21:47:20.668Z,22.83
2023-03-04T21:49:48.107Z,24.33
2023-03-04T21:52:15.728Z,22.38
2023-03-04T21:54:42.985Z,23.52
2023-03-04T21:57:10.498Z,22.45
2023-03-04T21:59:38.571Z,24.02
2023-03-04T22:02:07.023Z,25.00
2023-03-04T22:04:34.410Z,26.50
2023-03-04T22:07:01.977Z,23.33
2023-03-04T22:09:29.129Z,22.77
2023-03-04T22:11:56.572Z,24.63
2023-03-04T22:14:23.708Z,25.48
2023-03-04T22:16:55.774Z,25.25
2023-03-04T22:19:30.298Z,24.13
2023-03-04T22:21:57.464Z,22.33
2023-03-04T22:24:26.291Z,24.52
2023-03-04T22:26:53.611Z,23.25
2023-03-04T22:29:20.775Z,24.75
2023-03-04T22:31:48.125Z,22.88
2023-03-04T22:34:16.137Z,23.50
2023-03-04T22:36:45.478Z,24.13
2023-03-04T22:39:19.393Z,24.05
2023-03-04T22:41:47.121Z,23.25
2023-03-04T22:44:14.340Z,22.73
2023-03-04T22:46:42.312Z,21.92
2023-03-04T22:49:11.898Z,21.92
2023-03-04T22:51:43.928Z,22.58
2023-03-04T22:54:15.443Z,23.35
2023-03-04T22:56:42.720Z,22.67
2023-03-04T22:59:10.537Z,24.17
2023-03-04T23:01:37.755Z,23.38
2023-03-04T23:04:05.296Z,23.40
2023-03-04T23:06:32.454Z,23.05
2023-03-04T23:08:59.896Z,21.55
2023-03-04T23:11:30.276Z,22.35
2023-03-04T23:13:58.061Z,23.73
2023-03-04T23:16:27.686Z,21.65
2023-03-04T23:18:54.785Z,22.55
2023-03-04T23:21:24.709Z,23.58
2023-03-04T23:23:52.216Z,24.75
2023-03-04T23:26:22.059Z,22.77
2023-03-04T23:28:49.756Z,22.88
2023-03-04T23:31:17.606Z,22.45
2023-03-04T23:33:47.593Z,22.02
2023-03-04T23:36:17.849Z,23.02
2023-03-04T23:38:47.581Z,22.33
2023-03-04T23:41:17.693Z,23.33
2023-03-04T23:43:45.923Z,22.60
2023-03-04T23:46:13.513Z,22.55
2023-03-04T23:48:43.239Z,22.63
2023-03-04T23:51:10.947Z,22.42
2023-03-04T23:53:41.803Z,22.42
2023-03-04T23:56:10.383Z,23.02
2023-03-04T23:58:38.000Z,22.95
